sensor_id;sensor_type;location;lat;lon;timestamp;temperature;humidity
76750;DHT22;66447;35.844;14.468;2023-08-30T00:08:15;30.78;-6.00
76750;DHT22;66447;35.844;14.468;2023-08-30T00:23:19;30.80;-6.00
76750;DHT22;66447;35.844;14.468;2023-08-30T00:38:20;32.33;-6.00
76750;DHT22;66447;35.844;14.468;2023-08-30T00:53:21;31.60;-6.00
76750;DHT22;66447;35.844;14.468;2023-08-30T01:08:22;30.90;-6.00
76750;DHT22;66447;35.844;14.468;2023-08-30T01:38:28;30.51;-6.00
76750;DHT22;66447;35.844;14.468;2023-08-30T01:53:30;30.90;-6.00
76750;DHT22;66447;35.844;14.468;2023-08-30T02:08:40;29.77;-6.00
76750;DHT22;66447;35.844;14.468;2023-08-30T02:23:41;31.11;-6.00
76750;DHT22;66447;35.844;14.468;2023-08-30T02:38:42;30.21;-6.00
76750;DHT22;66447;35.844;14.468;2023-08-30T02:53:43;30.22;-6.00
76750;DHT22;66447;35.844;14.468;2023-08-30T03:08:44;30.09;-6.00
76750;DHT22;66447;35.844;14.468;2023-08-30T03:23:45;30.40;-6.00
76750;DHT22;66447;35.844;14.468;2023-08-30T03:38:45;30.79;-6.00
76750;DHT22;66447;35.844;14.468;2023-08-30T03:53:46;30.08;2.87
76750;DHT22;66447;35.844;14.468;2023-08-30T04:08:47;30.13;0.39
76750;DHT22;66447;35.844;14.468;2023-08-30T04:23:48;30.74;-6.00
76750;DHT22;66447;35.844;14.468;2023-08-30T04:38:49;30.60;-6.00
76750;DHT22;66447;35.844;14.468;2023-08-30T04:53:50;31.43;-6.00
76750;DHT22;66447;35.844;14.468;2023-08-30T05:08:50;32.96;-6.00
76750;DHT22;66447;35.844;14.468;2023-08-30T05:23:51;32.04;-6.00
76750;DHT22;66447;35.844;14.468;2023-08-30T05:38:52;32.72;-6.00
76750;DHT22;66447;35.844;14.468;2023-08-30T05:53:53;33.87;-6.00
76750;DHT22;66447;35.844;14.468;2023-08-30T06:08:54;32.31;-6.00
76750;DHT22;66447;35.844;14.468;2023-08-30T06:23:55;35.37;-6.00
76750;DHT22;66447;35.844;14.468;2023-08-30T06:38:56;35.15;-6.00
76750;DHT22;66447;35.844;14.468;2023-08-30T06:53:57;34.93;-6.00
76750;DHT22;66447;35.844;14.468;2023-08-30T07:09:00;36.07;-6.00
76750;DHT22;66447;35.844;14.468;2023-08-30T07:24:05;36.84;-6.00
76750;DHT22;66447;35.844;14.468;2023-08-30T07:39:06;35.75;-6.00
76750;DHT22;66447;35.844;14.468;2023-08-30T07:54:07;37.17;-6.00
76750;DHT22;66447;35.844;14.468;2023-08-30T08:09:08;37.72;-6.00
76750;DHT22;66447;35.844;14.468;2023-08-30T08:24:09;38.88;-6.00
76750;DHT22;66447;35.844;14.468;2023-08-30T08:39:10;36.96;-6.00
76750;DHT22;66447;35.844;14.468;2023-08-30T08:54:11;38.20;-6.00
76750;DHT22;66447;35.844;14.468;2023-08-30T09:09:13;37.50;-6.00
76750;DHT22;66447;35.844;14.468;2023-08-30T09:24:13;37.63;-6.00
76750;DHT22;66447;35.844;14.468;2023-08-30T09:39:14;37.48;-6.00
76750;DHT22;66447;35.844;14.468;2023-08-30T09:54:19;38.69;-6.00
76750;DHT22;66447;35.844;14.468;2023-08-30T10:09:21;39.98;-6.00
76750;DHT22;66447;35.844;14.468;2023-08-30T10:24:22;38.96;-6.00
76750;DHT22;66447;35.844;14.468;2023-08-30T10:54:38;41.41;-6.00
76750;DHT22;66447;35.844;14.468;2023-08-30T11:09:39;40.18;-6.00
76750;DHT22;66447;35.844;14.468;2023-08-30T11:24:40;39.57;-6.00
76750;DHT22;66447;35.844;14.468;2023-08-30T11:39:41;38.52;-6.00
76750;DHT22;66447;35.844;14.468;2023-08-30T11:54:42;40.53;-6.00
76750;DHT22;66447;35.844;14.468;2023-08-30T12:09:43;39.63;-6.00
76750;DHT22;66447;35.844;14.468;2023-08-30T12:24:44;41.78;-6.00
76750;DHT22;66447;35.844;14.468;2023-08-30T12:39:45;39.21;-6.00
76750;DHT22;66447;35.844;14.468;2023-08-30T12:54:46;40.80;-6.00
76750;DHT22;66447;35.844;14.468;2023-08-30T13:09:48;38.89;-6.00
76750;DHT22;66447;35.844;14.468;2023-08-30T13:24:49;38.91;-6.00
76750;DHT22;66447;35.844;14.468;2023-08-30T13:39:52;39.35;-6.00
76750;DHT22;66447;35.844;14.468;2023-08-30T13:54:52;39.00;-6.00
76750;DHT22;66447;35.844;14.468;2023-08-30T14:09:53;38.59;-6.00
76750;DHT22;66447;35.844;14.468;2023-08-30T14:24:54;38.97;-6.00
76750;DHT22;66447;35.844;14.468;2023-08-30T14:39:55;36.41;-6.00
76750;DHT22;66447;35.844;14.468;2023-08-30T14:54:55;35.86;-6.00
76750;DHT22;66447;35.844;14.468;2023-08-30T15:09:56;35.87;-6.00
76750;DHT22;66447;35.844;14.468;2023-08-30T15:24:57;36.23;-6.00
76750;DHT22;66447;35.844;14.468;2023-08-30T15:40:03;37.06;-6.00
76750;DHT22;66447;35.844;14.468;2023-08-30T15:55:05;35.83;-6.00
76750;DHT22;66447;35.844;14.468;2023-08-30T16:10:06;36.57;-6.00
76750;DHT22;66447;35.844;14.468;2023-08-30T16:25:08;36.19;-6.00
76750;DHT22;66447;35.844;14.468;2023-08-30T16:40:09;34.82;-6.00
76750;DHT22;66447;35.844;14.468;2023-08-30T16:55:10;35.44;-6.00
76750;DHT22;66447;35.844;14.468;2023-08-30T17:10:11;34.94;-6.00
76750;DHT22;66447;35.844;14.468;2023-08-30T17:25:12;34.88;-6.00
76750;DHT22;66447;35.844;14.468;2023-08-30T17:40:13;34.04;-6.00
76750;DHT22;66447;35.844;14.468;2023-08-30T17:55:15;35.00;-6.00
76750;DHT22;66447;35.844;14.468;2023-08-30T18:10:17;34.15;-6.00
76750;DHT22;66447;35.844;14.468;2023-08-30T18:25:17;34.35;-6.00
76750;DHT22;66447;35.844;14.468;2023-08-30T18:40:21;34.07;-6.00
76750;DHT22;66447;35.844;14.468;2023-08-30T18:55:23;34.22;-6.00
76750;DHT22;66447;35.844;14.468;2023-08-30T19:10:24;34.69;-6.00
76750;DHT22;66447;35.844;14.468;2023-08-30T19:25:25;32.40;-6.00
76750;DHT22;66447;35.844;14.468;2023-08-30T19:40:26;32.46;-6.00
76750;DHT22;66447;35.844;14.468;2023-08-30T19:55:27;32.75;-6.00
76750;DHT22;66447;35.844;14.468;2023-08-30T20:10:28;32.61;-6.00
76750;DHT22;66447;35.844;14.468;2023-08-30T20:25:29;32.34;-6.00
76750;DHT22;66447;35.844;14.468;2023-08-30T20:40:33;31.87;5.26
76750;DHT22;66447;35.844;14.468;2023-08-30T20:55:41;31.31;23.35
76750;DHT22;66447;35.844;14.468;2023-08-30T21:10:42;31.27;42.49
76750;DHT22;66447;35.844;14.468;2023-08-30T21:25:43;30.15;103.99
76750;DHT22;66447;35.844;14.468;2023-08-30T21:40:44;30.61;84.90
76750;DHT22;66447;35.844;14.468;2023-08-30T21:55:45;30.86;74.92
76750;DHT22;66447;35.844;14.468;2023-08-30T22:10:46;32.04;36.28
76750;DHT22;66447;35.844;14.468;2023-08-30T22:25:47;30.99;68.08
76750;DHT22;66447;35.844;14.468;2023-08-30T22:40:48;30.53;85.48
76750;DHT22;66447;35.844;14.468;2023-08-30T22:55:49;30.82;65.24
76750;DHT22;66447;35.844;14.468;2023-08-30T23:10:50;29.64;118.99
76750;DHT22;66447;35.844;14.468;2023-08-30T23:25:51;30.75;118.99
76750;DHT22;66447;35.844;14.468;2023-08-30T23:40:52;30.11;118.99
76750;DHT22;66447;35.844;14.468;2023-08-30T23:55:52;29.54;118.99
